Wetterdaten: Woche 12.11.12 - 18.11.12 (KW46)
Datum Zeit Temp. A. Feuchte A. Luftdruck Regen Wind Richtung Taupunkt Windchill Windben
12.11.2012 00:00 8,4 C 82 % 1018,7 hPa 0,0 l/m 0,0 km/h N 5,5 C 8,4 C 0,8 km/h
12.11.2012 01:00 8,3 C 83 % 1019,3 hPa 0,0 l/m 0,0 km/h N 5,6 C 8,3 C 0,0 km/h
12.11.2012 02:00 8,2 C 84 % 1019,6 hPa 0,0 l/m 0,0 km/h N 5,6 C 8,2 C 0,0 km/h
12.11.2012 03:00 8,2 C 84 % 1019,9 hPa 0,0 l/m 0,0 km/h N 5,7 C 8,2 C 0,0 km/h
12.11.2012 04:00 8,6 C 84 % 1020,3 hPa 0,0 l/m 0,2 km/h N 6,0 C 8,6 C 2,4 km/h
12.11.2012 05:00 9,5 C 84 % 1020,8 hPa 0,0 l/m 1,5 km/h N 6,9 C 9,5 C 9,3 km/h
12.11.2012 06:00 10,0 C 84 % 1021,7 hPa 0,0 l/m 2,3 km/h N 7,4 C 10,0 C 7,6 km/h
12.11.2012 07:00 9,4 C 84 % 1022,3 hPa 0,3 l/m 2,6 km/h N 6,7 C 9,4 C 9,7 km/h
12.11.2012 08:00 9,3 C 82 % 1022,8 hPa 0,0 l/m 1,2 km/h N 6,4 C 9,3 C 5,6 km/h
12.11.2012 09:00 9,4 C 82 % 1023,2 hPa 0,0 l/m 0,4 km/h N 6,5 C 9,4 C 4,4 km/h
12.11.2012 10:00 9,7 C 82 % 1023,6 hPa 0,0 l/m 0,5 km/h N 6,8 C 9,7 C 4,8 km/h
12.11.2012 11:00 10,1 C 82 % 1023,8 hPa 0,0 l/m 0,9 km/h N 7,1 C 10,1 C 6,0 km/h
12.11.2012 12:00 10,5 C 83 % 1023,7 hPa 0,0 l/m 0,7 km/h N 7,6 C 10,5 C 5,6 km/h
12.11.2012 13:00 11,0 C 84 % 1024,2 hPa 0,0 l/m 0,7 km/h N 8,4 C 11,0 C 4,8 km/h
12.11.2012 14:00 10,9 C 84 % 1023,7 hPa 0,0 l/m 1,8 km/h N 8,3 C 10,9 C 6,9 km/h
12.11.2012 15:00 10,6 C 84 % 1024,1 hPa 0,0 l/m 0,9 km/h N 8,0 C 10,6 C 6,0 km/h
12.11.2012 16:00 10,4 C 84 % 1024,5 hPa 0,0 l/m 1,1 km/h N 7,8 C 10,4 C 6,8 km/h
12.11.2012 17:00 10,1 C 84 % 1025,0 hPa 0,0 l/m 1,5 km/h N 7,5 C 10,1 C 8,4 km/h
12.11.2012 18:00 9,9 C 84 % 1025,5 hPa 0,0 l/m 1,6 km/h N 7,3 C 9,9 C 6,0 km/h
12.11.2012 19:00 9,7 C 84 % 1026,0 hPa 0,0 l/m 0,4 km/h N 7,2 C 9,7 C 4,4 km/h
12.11.2012 20:00 9,7 C 84 % 1026,6 hPa 0,0 l/m 2,0 km/h N 7,2 C 9,7 C 8,4 km/h
12.11.2012 21:00 9,8 C 84 % 1026,8 hPa 0,0 l/m 2,1 km/h N 7,2 C 9,8 C 8,9 km/h
12.11.2012 22:00 9,5 C 84 % 1027,0 hPa 0,0 l/m 0,4 km/h N 6,9 C 9,5 C 4,0 km/h
12.11.2012 23:00 9,4 C 84 % 1027,4 hPa 0,0 l/m 0,9 km/h N 6,9 C 9,4 C 6,0 km/h
13.11.2012 00:00 9,4 C 83 % 1027,7 hPa 0,0 l/m 1,2 km/h N 6,8 C 9,4 C 5,2 km/h
13.11.2012 01:00 9,7 C 83 % 1027,9 hPa 0,3 l/m 1,7 km/h N 6,9 C 9,7 C 7,2 km/h
13.11.2012 02:00 9,7 C 82 % 1028,4 hPa 0,3 l/m 1,2 km/h N 6,8 C 9,7 C 6,8 km/h
13.11.2012 03:00 9,5 C 82 % 1028,4 hPa 0,0 l/m 1,0 km/h N 6,6 C 9,5 C 6,0 km/h
13.11.2012 04:00 9,6 C 83 % 1028,6 hPa 0,0 l/m 3,9 km/h N 6,8 C 9,6 C 11,3 km/h
13.11.2012 05:00 9,4 C 83 % 1028,9 hPa 0,0 l/m 0,5 km/h N 6,7 C 9,4 C 4,4 km/h
13.11.2012 06:00 9,2 C 83 % 1029,5 hPa 0,0 l/m 1,3 km/h N 6,5 C 9,2 C 7,2 km/h
13.11.2012 07:00 9,2 C 83 % 1030,3 hPa 0,0 l/m 2,9 km/h N 6,5 C 9,2 C 9,7 km/h
13.11.2012 08:00 9,5 C 84 % 1030,9 hPa 0,0 l/m 3,9 km/h N 6,9 C 9,5 C 11,3 km/h
13.11.2012 09:00 9,7 C 85 % 1031,6 hPa 0,0 l/m 5,6 km/h N 7,2 C 9,5 C 16,1 km/h
13.11.2012 10:00 9,8 C 85 % 1032,0 hPa 0,0 l/m 4,8 km/h N 7,3 C 9,8 C 14,5 km/h
13.11.2012 11:00 10,3 C 83 % 1031,8 hPa 0,0 l/m 5,8 km/h N 7,5 C 10,0 C 12,9 km/h
13.11.2012 12:00 10,3 C 82 % 1031,6 hPa 0,0 l/m 5,7 km/h N 7,3 C 10,3 C 13,7 km/h
13.11.2012 13:00 10,4 C 81 % 1031,5 hPa 0,0 l/m 3,8 km/h N 7,3 C 10,4 C 12,1 km/h
13.11.2012 14:00 10,5 C 81 % 1031,8 hPa 0,0 l/m 4,4 km/h N 7,3 C 10,5 C 12,9 km/h
13.11.2012 15:00 10,1 C 81 % 1032,1 hPa 0,0 l/m 3,5 km/h N 7,1 C 10,1 C 8,9 km/h
13.11.2012 16:00 9,8 C 82 % 1032,1 hPa 0,0 l/m 1,1 km/h N 6,9 C 9,8 C 6,0 km/h
13.11.2012 17:00 8,9 C 83 % 1032,4 hPa 0,0 l/m 0,2 km/h N 6,1 C 8,9 C 2,8 km/h
13.11.2012 18:00 8,2 C 84 % 1032,8 hPa 0,0 l/m 0,0 km/h N 5,7 C 8,2 C 0,0 km/h
13.11.2012 19:00 8,4 C 84 % 1032,8 hPa 0,0 l/m 0,6 km/h N 5,9 C 8,4 C 5,2 km/h
13.11.2012 20:00 8,7 C 84 % 1032,8 hPa 0,0 l/m 0,1 km/h N 6,2 C 8,7 C 0,8 km/h
13.11.2012 21:00 8,3 C 85 % 1033,1 hPa 0,0 l/m 0,3 km/h N 5,9 C 8,3 C 2,4 km/h
13.11.2012 22:00 7,5 C 83 % 1033,2 hPa 0,0 l/m 1,3 km/h N 4,7 C 7,5 C 7,6 km/h
13.11.2012 23:00 6,7 C 81 % 1033,3 hPa 0,0 l/m 0,8 km/h N 3,6 C 6,7 C 4,4 km/h
14.11.2012 00:00 4,9 C 82 % 1033,6 hPa 0,0 l/m 0,0 km/h N 2,1 C 4,9 C 0,0 km/h
14.11.2012 01:00 3,0 C 84 % 1033,4 hPa 0,0 l/m 0,0 km/h N 0,5 C 3,0 C 0,0 km/h
14.11.2012 02:00 2,0 C 85 % 1033,3 hPa 0,0 l/m 0,0 km/h N -0,3 C 2,0 C 0,0 km/h
14.11.2012 03:00 1,3 C 85 % 1033,0 hPa 0,0 l/m 0,0 km/h N -1,0 C 1,3 C 0,4 km/h
14.11.2012 04:00 1,0 C 85 % 1033,0 hPa 0,0 l/m 0,0 km/h N -1,3 C 1,0 C 0,0 km/h
14.11.2012 05:00 0,0 C 85 % 1033,0 hPa 0,0 l/m 0,0 km/h N -2,2 C 0,0 C 0,0 km/h
14.11.2012 06:00 -0,3 C 84 % 1032,8 hPa 0,0 l/m 0,0 km/h N -2,6 C -0,3 C 0,0 km/h
14.11.2012 07:00 -0,6 C 84 % 1033,1 hPa 0,0 l/m 0,0 km/h N -3,0 C -0,6 C 0,0 km/h
14.11.2012 08:00 0,4 C 82 % 1033,2 hPa 0,0 l/m 0,0 km/h N -2,4 C 0,4 C 0,0 km/h
14.11.2012 09:00 3,4 C 80 % 1033,2 hPa 0,0 l/m 0,2 km/h N 0,3 C 3,4 C 2,8 km/h
14.11.2012 10:00 5,2 C 83 % 1032,9 hPa 0,0 l/m 0,6 km/h N 2,5 C 5,2 C 5,2 km/h
14.11.2012 11:00 6,6 C 79 % 1032,2 hPa 0,0 l/m 0,9 km/h N 3,2 C 6,6 C 6,0 km/h
14.11.2012 12:00 7,4 C 75 % 1031,8 hPa 0,0 l/m 0,9 km/h N 3,3 C 7,4 C 6,4 km/h
14.11.2012 13:00 7,8 C 74 % 1031,2 hPa 0,0 l/m 0,7 km/h N 3,4 C 7,8 C 6,0 km/h
14.11.2012 14:00 7,5 C 77 % 1030,9 hPa 0,0 l/m 0,4 km/h N 3,7 C 7,5 C 6,4 km/h
14.11.2012 15:00 7,0 C 78 % 1030,9 hPa 0,0 l/m 0,1 km/h N 3,5 C 7,0 C 2,4 km/h
14.11.2012 16:00 5,7 C 80 % 1031,0 hPa 0,0 l/m 0,0 km/h N 2,5 C 5,7 C 1,2 km/h
14.11.2012 17:00 3,5 C 80 % 1031,1 hPa 0,0 l/m 0,0 km/h N 0,4 C 3,5 C 0,0 km/h
14.11.2012 18:00 1,7 C 82 % 1031,3 hPa 0,0 l/m 0,0 km/h N -1,0 C 1,7 C 0,0 km/h
14.11.2012 19:00 0,6 C 85 % 1031,2 hPa 0,0 l/m 0,0 km/h N -1,7 C 0,6 C 0,0 km/h
14.11.2012 20:00 1,6 C 84 % 1030,7 hPa 0,0 l/m 0,2 km/h N -0,8 C 1,6 C 2,8 km/h
14.11.2012 21:00 3,3 C 82 % 1030,4 hPa 0,0 l/m 0,7 km/h N 0,5 C 3,3 C 5,6 km/h
14.11.2012 22:00 2,4 C 82 % 1030,2 hPa 0,0 l/m 1,1 km/h N -0,3 C 2,4 C 6,4 km/h
14.11.2012 23:00 1,9 C 82 % 1029,9 hPa 0,0 l/m 0,2 km/h N -0,8 C 1,9 C 2,8 km/h
15.11.2012 00:00 1,6 C 81 % 1029,5 hPa 0,0 l/m 0,0 km/h N -1,2 C 1,6 C 0,0 km/h
15.11.2012 01:00 1,2 C 82 % 1028,8 hPa 0,0 l/m 0,0 km/h N -1,5 C 1,2 C 0,8 km/h
15.11.2012 02:00 0,3 C 82 % 1028,3 hPa 0,0 l/m 0,0 km/h N -2,4 C 0,3 C 0,0 km/h
15.11.2012 03:00 -0,9 C 82 % 1027,8 hPa 0,0 l/m 0,0 km/h N -3,5 C -0,9 C 0,0 km/h
15.11.2012 04:00 -1,4 C 82 % 1027,6 hPa 0,0 l/m 0,0 km/h N -4,1 C -1,4 C 0,0 km/h
15.11.2012 05:00 -0,9 C 81 % 1027,4 hPa 0,0 l/m 0,0 km/h N -3,8 C -0,9 C 0,0 km/h
15.11.2012 06:00 0,4 C 80 % 1027,1 hPa 0,0 l/m 0,0 km/h N -2,6 C 0,4 C 0,0 km/h
15.11.2012 07:00 1,4 C 80 % 1027,1 hPa 0,3 l/m 0,0 km/h N -1,7 C 1,4 C 0,0 km/h
15.11.2012 08:00 2,2 C 79 % 1027,0 hPa 0,0 l/m 0,0 km/h N -1,1 C 2,2 C 0,0 km/h
15.11.2012 09:00 4,4 C 79 % 1026,5 hPa 0,0 l/m 3,5 km/h N 1,0 C 4,4 C 13,3 km/h
15.11.2012 10:00 6,6 C 82 % 1025,9 hPa 0,0 l/m 1,6 km/h N 3,8 C 6,6 C 8,0 km/h
15.11.2012 11:00 9,2 C 71 % 1025,3 hPa 0,0 l/m 6,1 km/h N 4,2 C 8,4 C 18,1 km/h
15.11.2012 12:00 10,0 C 67 % 1024,5 hPa 0,0 l/m 7,1 km/h N 4,2 C 9,3 C 22,5 km/h
15.11.2012 13:00 10,3 C 68 % 1023,6 hPa 0,0 l/m 4,9 km/h N 4,7 C 10,3 C 17,3 km/h
15.11.2012 14:00 10,0 C 69 % 1023,3 hPa 0,0 l/m 4,8 km/h N 4,5 C 10,0 C 17,3 km/h
15.11.2012 15:00 9,1 C 71 % 1023,2 hPa 0,0 l/m 4,4 km/h N 4,0 C 9,1 C 15,3 km/h
15.11.2012 16:00 7,8 C 75 % 1023,1 hPa 0,0 l/m 2,6 km/h N 3,6 C 7,8 C 10,4 km/h
15.11.2012 17:00 6,8 C 78 % 1023,1 hPa 0,0 l/m 3,0 km/h N 3,1 C 6,8 C 8,9 km/h
15.11.2012 18:00 5,7 C 80 % 1023,3 hPa 0,0 l/m 0,3 km/h N 2,5 C 5,7 C 4,0 km/h
15.11.2012 19:00 4,3 C 81 % 1023,6 hPa 0,0 l/m 0,0 km/h N 1,3 C 4,3 C 0,0 km/h
15.11.2012 20:00 2,7 C 83 % 1023,7 hPa 0,0 l/m 0,0 km/h N 0,0 C 2,7 C 0,0 km/h
15.11.2012 21:00 1,4 C 85 % 1023,8 hPa 0,0 l/m 0,0 km/h N -0,9 C 1,4 C 0,0 km/h
15.11.2012 22:00 0,5 C 85 % 1023,6 hPa 0,0 l/m 0,0 km/h N -1,7 C 0,5 C 0,0 km/h
15.11.2012 23:00 -0,3 C 85 % 1023,5 hPa 0,0 l/m 0,1 km/h N -2,5 C -0,3 C 0,8 km/h
16.11.2012 00:00 -0,9 C 85 % 1023,3 hPa 0,0 l/m 0,0 km/h N -3,1 C -0,9 C 0,4 km/h
16.11.2012 01:00 -1,3 C 85 % 1022,9 hPa 0,0 l/m 0,0 km/h N -3,5 C -1,3 C 0,0 km/h
16.11.2012 02:00 -1,6 C 84 % 1022,9 hPa 0,0 l/m 0,0 km/h N -3,9 C -1,6 C 0,0 km/h
16.11.2012 03:00 -1,1 C 83 % 1022,7 hPa 0,0 l/m 0,0 km/h N -3,6 C -1,1 C 0,0 km/h
16.11.2012 04:00 -1,2 C 83 % 1022,7 hPa 0,0 l/m 0,0 km/h N -3,6 C -1,2 C 0,0 km/h
16.11.2012 05:00 -1,4 C 83 % 1022,8 hPa 0,0 l/m 0,0 km/h N -3,9 C -1,4 C 0,0 km/h
16.11.2012 06:00 -1,8 C 83 % 1023,1 hPa 0,0 l/m 0,0 km/h N -4,3 C -1,8 C 0,0 km/h
16.11.2012 07:00 -2,0 C 83 % 1023,3 hPa 0,0 l/m 0,0 km/h N -4,4 C -2,0 C 0,0 km/h
16.11.2012 08:00 -0,5 C 80 % 1023,4 hPa 0,3 l/m 0,0 km/h N -3,5 C -0,5 C 0,0 km/h
16.11.2012 09:00 4,3 C 78 % 1023,4 hPa 0,0 l/m 0,8 km/h N 0,8 C 4,3 C 5,6 km/h
16.11.2012 10:00 7,1 C 81 % 1023,3 hPa 0,0 l/m 3,8 km/h N 4,1 C 7,1 C 12,9 km/h
16.11.2012 11:00 9,6 C 69 % 1022,8 hPa 0,0 l/m 10,2 km/h N 4,1 C 7,1 C 26,1 km/h
16.11.2012 12:00 10,3 C 65 % 1022,2 hPa 0,0 l/m 10,9 km/h N 3,9 C 7,5 C 26,5 km/h
16.11.2012 13:00 10,2 C 64 % 1021,9 hPa 0,0 l/m 11,8 km/h N 3,6 C 6,9 C 28,2 km/h
16.11.2012 14:00 10,0 C 65 % 1021,6 hPa 0,0 l/m 12,2 km/h N 3,7 C 6,4 C 27,8 km/h
16.11.2012 15:00 9,2 C 67 % 1021,5 hPa 0,0 l/m 12,2 km/h N 3,4 C 5,5 C 27,0 km/h
16.11.2012 16:00 7,9 C 72 % 1021,5 hPa 0,0 l/m 5,7 km/h N 3,2 C 6,8 C 18,1 km/h
16.11.2012 17:00 6,6 C 81 % 1021,5 hPa 0,0 l/m 12,8 km/h N 3,6 C 2,4 C 29,0 km/h
16.11.2012 18:00 6,2 C 83 % 1021,7 hPa 0,0 l/m 11,8 km/h N 3,6 C 2,5 C 25,3 km/h
16.11.2012 19:00 6,0 C 84 % 1021,6 hPa 0,0 l/m 9,2 km/h N 3,5 C 3,8 C 25,3 km/h
16.11.2012 20:00 6,3 C 83 % 1020,8 hPa 0,0 l/m 15,9 km/h N 3,5 C 0,2 C 31,0 km/h
16.11.2012 21:00 6,3 C 80 % 1020,6 hPa 0,0 l/m 11,7 km/h N 3,1 C 2,6 C 25,7 km/h
16.11.2012 22:00 6,6 C 77 % 1020,1 hPa 0,0 l/m 9,2 km/h N 2,9 C 4,4 C 21,7 km/h
16.11.2012 23:00 6,5 C 77 % 1019,7 hPa 0,0 l/m 10,6 km/h N 2,7 C 3,3 C 26,6 km/h
17.11.2012 00:00 6,3 C 76 % 1019,3 hPa 0,0 l/m 8,9 km/h N 2,4 C 4,2 C 21,3 km/h
17.11.2012 01:00 6,0 C 76 % 1019,0 hPa 0,0 l/m 10,0 km/h N 2,1 C 3,3 C 24,1 km/h
17.11.2012 02:00 5,6 C 77 % 1018,8 hPa 0,0 l/m 4,7 km/h N 1,9 C 5,6 C 13,3 km/h
17.11.2012 03:00 4,7 C 81 % 1018,4 hPa 0,0 l/m 1,5 km/h N 1,7 C 4,7 C 8,5 km/h
17.11.2012 04:00 4,2 C 82 % 1018,0 hPa 0,0 l/m 1,3 km/h N 1,3 C 4,2 C 6,4 km/h
17.11.2012 05:00 2,3 C 81 % 1018,0 hPa 0,0 l/m 0,0 km/h N -0,6 C 2,3 C 0,8 km/h
17.11.2012 06:00 0,1 C 83 % 1018,0 hPa 0,0 l/m 0,0 km/h N -2,4 C 0,1 C 0,0 km/h
17.11.2012 07:00 -0,9 C 85 % 1018,2 hPa 0,0 l/m 0,0 km/h N -3,1 C -0,9 C 0,0 km/h
17.11.2012 08:00 0,1 C 84 % 1018,2 hPa 0,0 l/m 0,0 km/h N -2,3 C 0,1 C 0,0 km/h
17.11.2012 09:00 4,6 C 81 % 1017,7 hPa 0,0 l/m 2,5 km/h N 1,7 C 4,5 C 10,1 km/h
17.11.2012 10:00 7,9 C 70 % 1017,4 hPa 0,0 l/m 8,9 km/h N 2,7 C 6,0 C 22,9 km/h
17.11.2012 11:00 9,1 C 65 % 1016,6 hPa 0,0 l/m 7,6 km/h N 2,7 C 8,2 C 20,1 km/h
17.11.2012 12:00 9,7 C 62 % 1016,0 hPa 0,0 l/m 7,3 km/h N 2,8 C 9,0 C 18,9 km/h
17.11.2012 13:00 10,3 C 65 % 1015,5 hPa 0,0 l/m 4,8 km/h N 3,9 C 10,2 C 18,1 km/h
17.11.2012 14:00 9,8 C 67 % 1015,3 hPa 0,0 l/m 5,8 km/h N 4,0 C 9,8 C 20,5 km/h
17.11.2012 15:00 8,7 C 72 % 1015,3 hPa 0,0 l/m 4,7 km/h N 3,9 C 8,7 C 17,7 km/h
17.11.2012 16:00 7,5 C 77 % 1015,4 hPa 0,0 l/m 1,9 km/h N 3,6 C 7,5 C 9,2 km/h
17.11.2012 17:00 6,2 C 79 % 1015,5 hPa 0,0 l/m 0,5 km/h N 2,8 C 6,2 C 4,0 km/h
17.11.2012 18:00 3,6 C 80 % 1015,6 hPa 0,0 l/m 0,0 km/h N 0,5 C 3,6 C 0,0 km/h
17.11.2012 19:00 1,6 C 83 % 1015,7 hPa 0,0 l/m 0,0 km/h N -1,1 C 1,6 C 0,0 km/h
17.11.2012 20:00 0,4 C 84 % 1015,4 hPa 0,0 l/m 0,0 km/h N -2,0 C 0,4 C 0,0 km/h
17.11.2012 21:00 0,1 C 85 % 1015,2 hPa 0,0 l/m 0,0 km/h N -2,1 C 0,1 C 0,0 km/h
17.11.2012 22:00 0,9 C 84 % 1015,0 hPa 0,0 l/m 0,0 km/h N -1,6 C 0,9 C 0,8 km/h
17.11.2012 23:00 3,4 C 82 % 1014,9 hPa 0,0 l/m 0,7 km/h N 0,5 C 3,4 C 4,0 km/h
18.11.2012 00:00 3,3 C 82 % 1015,0 hPa 0,0 l/m 1,1 km/h N 0,6 C 3,3 C 5,6 km/h
18.11.2012 01:00 3,0 C 83 % 1015,2 hPa 0,0 l/m 1,9 km/h N 0,4 C 3,0 C 6,8 km/h
18.11.2012 02:00 3,1 C 84 % 1015,2 hPa 0,0 l/m 1,6 km/h N 0,7 C 3,1 C 6,8 km/h
18.11.2012 03:00 3,3 C 84 % 1015,3 hPa 0,0 l/m 1,2 km/h N 0,9 C 3,3 C 5,6 km/h
18.11.2012 04:00 3,7 C 85 % 1015,3 hPa 0,0 l/m 0,9 km/h N 1,4 C 3,7 C 4,8 km/h
18.11.2012 05:00 3,9 C 85 % 1015,7 hPa 0,0 l/m 0,1 km/h N 1,6 C 3,9 C 1,2 km/h
18.11.2012 06:00 4,1 C 85 % 1016,0 hPa 0,0 l/m 0,0 km/h N 1,7 C 4,1 C 0,0 km/h
18.11.2012 07:00 4,2 C 84 % 1016,3 hPa 0,0 l/m 0,0 km/h N 1,8 C 4,2 C 0,0 km/h
18.11.2012 08:00 4,4 C 84 % 1016,7 hPa 0,0 l/m 0,1 km/h N 1,9 C 4,4 C 2,8 km/h
18.11.2012 09:00 4,7 C 85 % 1016,7 hPa 0,0 l/m 0,4 km/h N 2,3 C 4,7 C 3,2 km/h
18.11.2012 10:00 4,8 C 85 % 1016,6 hPa 0,0 l/m 0,9 km/h N 2,5 C 4,8 C 4,8 km/h
18.11.2012 11:00 5,0 C 85 % 1016,3 hPa 0,0 l/m 0,6 km/h N 2,7 C 5,0 C 4,8 km/h
18.11.2012 12:00 5,2 C 85 % 1016,0 hPa 0,0 l/m 0,4 km/h N 2,9 C 5,2 C 4,0 km/h
18.11.2012 13:00 5,7 C 85 % 1015,7 hPa 0,0 l/m 0,2 km/h N 3,4 C 5,7 C 2,8 km/h
18.11.2012 14:00 6,0 C 85 % 1015,8 hPa 0,0 l/m 0,2 km/h N 3,6 C 6,0 C 2,0 km/h
18.11.2012 15:00 6,1 C 85 % 1016,0 hPa 0,0 l/m 0,1 km/h N 3,7 C 6,1 C 2,4 km/h
18.11.2012 16:00 6,2 C 84 % 1016,3 hPa 0,0 l/m 0,1 km/h N 3,7 C 6,2 C 1,2 km/h
18.11.2012 17:00 6,3 C 83 % 1016,6 hPa 0,0 l/m 0,0 km/h N 3,7 C 6,3 C 0,8 km/h
18.11.2012 18:00 6,4 C 83 % 1017,1 hPa 0,0 l/m 0,0 km/h N 3,7 C 6,4 C 0,0 km/h
18.11.2012 19:00 6,3 C 82 % 1017,4 hPa 0,0 l/m 0,0 km/h N 3,5 C 6,3 C 0,8 km/h
18.11.2012 20:00 6,1 C 82 % 1017,7 hPa 0,0 l/m 0,0 km/h N 3,3 C 6,1 C 0,0 km/h
18.11.2012 21:00 6,0 C 82 % 1017,9 hPa 0,0 l/m 0,0 km/h N 3,1 C 6,0 C 0,4 km/h
18.11.2012 22:00 5,9 C 81 % 1018,1 hPa 0,0 l/m 0,1 km/h N 2,9 C 5,9 C 2,4 km/h
18.11.2012 23:00 5,8 C 81 % 1018,5 hPa 0,0 l/m 0,0 km/h N 2,7 C 5,8 C 0,8 km/h
Min-Datum _ 16.11.12 17.11.12 17.11.12 - 12.11.12 - 16.11.12 16.11.12 12.11.12
_ Min-Zeit 07:30 12:45 23:30 - 00:00 - 07:30 07:30 00:00
Minimum _ -2,0 C 61 % 1014,8 hPa - 0,0 km/h - -4,5 C -2,0 C 0,0 km/h
Max-Datum _ 12.11.12 13.11.12 14.11.12 12.11.12 16.11.12 - 12.11.12 12.11.12 16.11.12
_ Max-Zeit 14:00 09:15 00:15 07:15 18:00 - 14:00 14:00 18:00
Maximum _ 11,2 C 85 % 1033,6 hPa 0,3 l/m 17,7 km/h
N
- 8,6 C 11,2 C 35,4 km/h
N
Durchschnitt _ 5,7 C 81 % 1023,9 hPa #1,3 l/m 2,1 km/h N 2,6 C 5,4 C 6,8 km/h